Pagrindinis puslapis
METAR-TAF:

METAR-TAF

Oro uostai :

Portage Glacier, Aliaska, Jungtinės Amerikos Valstijos

platuma: 60-47N, ilguma: 148-50W, Aukštis: 29 m

Dabartinis oras

Ataskaita buvo paskelbta 25 minutes, ne 19:53 UTC
Ramus vėjas
Temperatūra -16°C
Drėgmė 92%
Slėgis 1015 hPa
Matomumas: 16.1 km
Giedras dangus

METAR: PATO 161953Z AUTO 00000KT 10SM CLR M16/M17 A2998 RMK AO2 SLP154 T11611172 TSNO $

Laikas: 11:18 (20:18 UTC)


TAF: trūkstamas

Orai ataskaitas ir orų prognozės (METAR, TAF).

turimą stotys yra geltonos ir raudonos taškus žemėlapyje.

Perkelti pele per norėdami pamatyti stoties vardą.

Tada spustelėkite, norėdami matyti oro stebėjimo ir prognozės.

Norėdami pakeisti žemėlapį: spustelėkite ant žalios mygtukų su juodo kryžiaus žemyn,; žalią mygtuką su brūkšneliu, jei norite nutolinti; arba žalių rodyklių gretimoms žemėlapius.


METAR-TAF: